Time;durP1;ratioP1;P1;durP2;ratioP2;P2;SDS_P1;SDS_P2;PMS_P1;PMS_P2;Temp;Humidity;BMP_temperature;BMP_pressure;BME280_temperature;BME280_humidity;BME280_pressure;Samples;Min_cycle;Max_cycle;Signal;HPM_P1;HPM_P2
2022/04/12 00:00:56;;;;;;;62.63;34.58;;;6.40;94.60;;;;;;5034640;28;20101;-61
2022/04/12 00:03:21;;;;;;;56.33;31.83;;;6.50;94.50;;;;;;5034194;28;20687;-60
2022/04/12 00:05:47;;;;;;;54.10;29.52;;;6.60;93.90;;;;;;5034014;28;20422;-64
2022/04/12 00:08:13;;;;;;;50.53;26.75;;;6.60;93.40;;;;;;5033950;28;20049;-66
2022/04/12 00:10:39;;;;;;;50.47;26.75;;;6.60;93.50;;;;;;5034004;28;20051;-61
2022/04/12 00:13:05;;;;;;;41.72;24.27;;;6.70;92.40;;;;;;5033929;28;20030;-64
2022/04/12 00:15:31;;;;;;;41.47;22.98;;;6.60;91.90;;;;;;5033709;28;20516;-62
2022/04/12 00:20:43;;;;;;;37.00;20.40;;;6.60;91.50;;;;;;5033720;28;20044;-63
2022/04/12 00:23:10;;;;;;;36.35;20.60;;;6.60;90.90;;;;;;5033787;28;20025;-62
2022/04/12 00:25:36;;;;;;;38.25;20.80;;;6.60;90.90;;;;;;5033748;28;20087;-57
2022/04/12 00:28:03;;;;;;;33.20;18.75;;;6.50;91.00;;;;;;5033520;28;20480;-62
2022/04/12 00:30:29;;;;;;;41.65;22.63;;;6.60;91.60;;;;;;5033607;28;20044;-64
2022/04/12 00:32:55;;;;;;;35.60;20.70;;;6.50;91.70;;;;;;5033643;28;20020;-62
2022/04/12 00:35:23;;;;;;;34.92;19.15;;;6.30;94.00;;;;;;5033554;28;20031;-59
2022/04/12 00:37:53;;;;;;;31.15;17.60;;;6.30;93.60;;;;;;5033682;28;20021;-61
2022/04/12 00:40:20;;;;;;;30.00;17.17;;;6.30;93.30;;;;;;5033439;28;20495;-59
2022/04/12 00:42:46;;;;;;;49.80;27.90;;;6.30;92.80;;;;;;5033417;28;20017;-59
2022/04/12 00:45:12;;;;;;;44.47;25.33;;;6.20;93.10;;;;;;5033373;28;20434;-58
2022/04/12 00:47:39;;;;;;;37.53;21.45;;;6.10;93.80;;;;;;5033312;28;20026;-62
2022/04/12 00:50:07;;;;;;;39.30;22.15;;;6.00;95.00;;;;;;5033363;28;20026;-60
2022/04/12 00:52:36;;;;;;;33.90;20.15;;;6.10;94.10;;;;;;5033245;28;20022;-58
2022/04/12 00:55:06;;;;;;;32.05;18.88;;;6.10;94.20;;;;;;5033291;28;20089;-65
2022/04/12 00:57:32;;;;;;;29.30;17.13;;;6.10;93.90;;;;;;5033126;28;20392;-61
2022/04/12 01:00:00;;;;;;;32.67;17.92;;;6.20;93.30;;;;;;5033252;28;20025;-60
2022/04/12 01:02:26;;;;;;;28.27;16.48;;;6.20;92.30;;;;;;5033281;28;20080;-57
2022/04/12 01:04:52;;;;;;;35.63;20.17;;;6.20;92.60;;;;;;5033164;28;20125;-61
2022/04/12 01:07:19;;;;;;;27.13;16.65;;;6.10;93.10;;;;;;5033338;28;20052;-59
2022/04/12 01:09:45;;;;;;;36.95;19.10;;;6.00;93.30;;;;;;5033177;28;20030;-62
2022/04/12 01:12:11;;;;;;;28.13;17.13;;;6.00;93.40;;;;;;5033083;28;20026;-62
2022/04/12 01:14:37;;;;;;;26.10;15.27;;;6.00;94.00;;;;;;5032646;28;20022;-65
2022/04/12 01:17:07;;;;;;;31.35;18.55;;;6.00;93.80;;;;;;5031846;28;20418;-64
2022/04/12 01:19:33;;;;;;;31.00;17.05;;;6.00;93.50;;;;;;5033063;28;20151;-61
2022/04/12 01:22:04;;;;;;;33.03;17.10;;;5.90;94.10;;;;;;5033278;28;20077;-60
2022/04/12 01:24:32;;;;;;;24.73;14.70;;;5.90;94.10;;;;;;5033326;28;20068;-62
2022/04/12 01:26:58;;;;;;;23.40;13.57;;;5.90;94.70;;;;;;5032889;28;20083;-65
2022/04/12 01:29:25;;;;;;;19.58;12.43;;;5.80;94.70;;;;;;5032769;28;20037;-61
2022/04/12 01:31:51;;;;;;;27.20;14.65;;;5.80;94.40;;;;;;5032950;28;20369;-63
2022/04/12 01:34:17;;;;;;;18.55;11.95;;;5.90;93.90;;;;;;5033247;28;20026;-61
2022/04/12 01:36:43;;;;;;;28.65;16.70;;;5.80;94.70;;;;;;5035799;28;20492;-60
2022/04/12 01:39:09;;;;;;;20.70;11.82;;;5.80;94.70;;;;;;5036996;28;20030;-60
2022/04/12 01:41:34;;;;;;;30.58;17.48;;;5.70;95.50;;;;;;5036800;28;20480;-61
2022/04/12 01:44:00;;;;;;;30.10;18.45;;;5.60;96.50;;;;;;5036439;28;20033;-62
2022/04/12 01:46:27;;;;;;;30.65;16.02;;;5.50;97.60;;;;;;5036863;28;20506;-58
2022/04/12 01:48:52;;;;;;;38.88;22.90;;;5.50;99.10;;;;;;5036718;28;20364;-59
2022/04/12 01:51:18;;;;;;;52.78;29.77;;;5.50;99.90;;;;;;5036463;28;20025;-61
2022/04/12 01:53:44;;;;;;;55.08;30.63;;;5.50;99.90;;;;;;5036671;28;20088;-64
2022/04/12 01:56:10;;;;;;;46.30;25.63;;;5.40;99.90;;;;;;5036440;28;20030;-66
2022/04/12 01:58:36;;;;;;;39.58;23.02;;;5.40;99.90;;;;;;5036179;28;20018;-58
2022/04/12 02:01:03;;;;;;;48.65;27.08;;;5.40;99.90;;;;;;5036530;28;20028;-63
2022/04/12 02:03:29;;;;;;;43.05;25.88;;;5.40;99.90;;;;;;5036442;28;20383;-58
2022/04/12 02:05:55;;;;;;;39.28;24.60;;;5.30;99.90;;;;;;5036262;28;20052;-63
2022/04/12 02:08:21;;;;;;;38.10;23.42;;;5.40;99.90;;;;;;5036349;28;20053;-63
2022/04/12 02:10:47;;;;;;;33.90;19.95;;;5.40;99.90;;;;;;5036260;28;20021;-62
2022/04/12 02:13:13;;;;;;;28.08;17.77;;;5.30;99.50;;;;;;5036096;28;20079;-61
2022/04/12 02:15:38;;;;;;;27.67;17.25;;;5.30;99.90;;;;;;5036068;28;20077;-61
2022/04/12 02:18:04;;;;;;;22.15;14.32;;;5.30;99.70;;;;;;5036115;28;20049;-62
2022/04/12 02:20:30;;;;;;;21.92;13.88;;;5.40;98.50;;;;;;5035904;28;20037;-64
2022/04/12 02:22:56;;;;;;;20.55;12.50;;;5.40;98.20;;;;;;5036237;28;20056;-61
2022/04/12 02:25:21;;;;;;;22.17;13.40;;;5.50;98.00;;;;;;5036042;28;20083;-63
2022/04/12 02:27:47;;;;;;;20.10;11.55;;;5.50;98.30;;;;;;5035748;28;20025;-62
2022/04/12 02:30:13;;;;;;;21.45;12.13;;;5.50;97.50;;;;;;5035788;28;20025;-66
2022/04/12 02:32:40;;;;;;;22.15;12.52;;;5.50;97.60;;;;;;5035954;28;20027;-61
2022/04/12 02:35:06;;;;;;;20.75;11.70;;;5.50;97.10;;;;;;5036073;28;20045;-60
2022/04/12 02:37:32;;;;;;;16.92;10.55;;;5.40;97.50;;;;;;5035667;28;20392;-63
2022/04/12 02:39:57;;;;;;;16.52;10.95;;;5.40;97.70;;;;;;5035765;28;20030;-60
2022/04/12 02:42:23;;;;;;;18.80;11.00;;;5.40;98.60;;;;;;5035436;28;20025;-64
2022/04/12 02:44:49;;;;;;;21.17;12.73;;;5.40;98.00;;;;;;5035728;28;20025;-58
2022/04/12 02:47:14;;;;;;;26.60;15.55;;;5.40;98.80;;;;;;5035427;28;20029;-58
2022/04/12 02:49:40;;;;;;;23.55;14.65;;;5.40;98.20;;;;;;5035612;28;20030;-60
2022/04/12 02:52:08;;;;;;;30.20;18.20;;;5.20;99.30;;;;;;5035520;28;20048;-62
2022/04/12 02:54:34;;;;;;;32.92;20.02;;;5.20;99.90;;;;;;5035207;28;20121;-63
2022/04/12 02:57:00;;;;;;;30.73;18.88;;;5.10;99.90;;;;;;5035209;28;20092;-65
2022/04/12 02:59:26;;;;;;;28.55;17.42;;;5.00;99.90;;;;;;5035289;28;20112;-62
2022/04/12 03:01:52;;;;;;;24.38;15.77;;;5.00;99.90;;;;;;5035197;28;20483;-63
2022/04/12 03:04:17;;;;;;;23.67;14.55;;;5.10;99.90;;;;;;5035376;28;20100;-64
2022/04/12 03:06:43;;;;;;;27.48;16.33;;;5.10;99.90;;;;;;5035300;28;20025;-61
2022/04/12 03:09:09;;;;;;;31.02;17.88;;;5.10;99.90;;;;;;5035027;28;20049;-65
2022/04/12 03:11:35;;;;;;;23.08;14.95;;;5.00;99.90;;;;;;5034911;28;20021;-60
2022/04/12 03:14:02;;;;;;;21.00;12.95;;;5.00;99.90;;;;;;5035015;28;20075;-62
2022/04/12 03:16:28;;;;;;;35.70;20.77;;;5.00;99.90;;;;;;5034749;28;20056;-66
2022/04/12 03:18:54;;;;;;;23.58;15.15;;;5.00;99.90;;;;;;5035024;28;20022;-62
2022/04/12 03:21:20;;;;;;;28.38;18.48;;;4.90;99.90;;;;;;5035217;28;20204;-65
2022/04/12 03:23:46;;;;;;;21.70;14.57;;;4.90;99.90;;;;;;5034864;28;20108;-65
2022/04/12 03:26:11;;;;;;;22.40;14.02;;;4.80;99.90;;;;;;5034602;28;20080;-62
2022/04/12 03:28:37;;;;;;;23.15;13.98;;;4.80;99.90;;;;;;5034774;28;20030;-61
2022/04/12 03:31:03;;;;;;;22.60;12.68;;;4.90;99.90;;;;;;5034680;28;20020;-60
2022/04/12 03:33:29;;;;;;;22.40;13.45;;;4.90;99.90;;;;;;5034641;28;20104;-64
2022/04/12 03:35:54;;;;;;;19.45;11.40;;;4.90;99.90;;;;;;5034679;28;20033;-65
2022/04/12 03:38:20;;;;;;;18.08;10.82;;;4.90;99.90;;;;;;5034876;28;20041;-63
2022/04/12 03:40:46;;;;;;;19.15;10.23;;;4.90;99.90;;;;;;5034490;28;20033;-62
2022/04/12 03:43:12;;;;;;;16.52;10.45;;;4.90;99.90;;;;;;5034618;28;20060;-61
2022/04/12 03:45:38;;;;;;;19.15;11.98;;;4.90;99.90;;;;;;5034468;28;20053;-64
2022/04/12 03:48:06;;;;;;;24.13;13.68;;;4.90;99.90;;;;;;5034225;28;20472;-63
2022/04/12 03:50:34;;;;;;;21.25;12.00;;;4.90;99.90;;;;;;5034350;28;20480;-64
2022/04/12 03:53:01;;;;;;;20.17;12.32;;;4.80;99.90;;;;;;5034256;28;20036;-59
2022/04/12 03:55:30;;;;;;;20.95;13.48;;;4.80;99.90;;;;;;5034295;28;20098;-64
2022/04/12 03:58:07;;;;;;;25.58;14.00;;;4.90;99.90;;;;;;5034023;28;20036;-59
2022/04/12 04:00:34;;;;;;;26.65;15.48;;;4.90;99.90;;;;;;5034340;28;20033;-59
2022/04/12 04:03:00;;;;;;;31.48;18.08;;;4.80;99.90;;;;;;5034327;28;20017;-62
2022/04/12 04:05:26;;;;;;;33.70;18.85;;;4.80;99.90;;;;;;5034110;28;20045;-62
2022/04/12 04:07:53;;;;;;;29.05;17.33;;;4.80;99.90;;;;;;5033997;28;20024;-64
2022/04/12 04:10:18;;;;;;;33.45;20.73;;;4.80;99.90;;;;;;5033750;28;20068;-64
2022/04/12 04:12:45;;;;;;;30.83;20.02;;;4.80;99.90;;;;;;5034168;28;20053;-62
2022/04/12 04:15:14;;;;;;;26.77;16.83;;;4.80;99.90;;;;;;5033793;28;20056;-63
2022/04/12 04:17:45;;;;;;;29.38;17.35;;;4.70;99.90;;;;;;5033799;28;20495;-61
2022/04/12 04:20:12;;;;;;;22.15;13.43;;;4.70;99.90;;;;;;5033660;28;20044;-63
2022/04/12 04:22:40;;;;;;;20.10;12.48;;;4.70;99.90;;;;;;5033891;28;20099;-65
2022/04/12 04:25:07;;;;;;;32.05;19.23;;;4.80;99.90;;;;;;5033994;28;20025;-66
2022/04/12 04:27:34;;;;;;;43.13;26.50;;;4.80;99.90;;;;;;5033703;28;20559;-64
2022/04/12 04:29:59;;;;;;;65.25;40.95;;;4.70;99.90;;;;;;5033686;28;20464;-61
2022/04/12 04:32:25;;;;;;;63.67;40.40;;;4.70;99.90;;;;;;5033552;28;20036;-60
2022/04/12 04:34:51;;;;;;;61.88;39.35;;;4.50;99.90;;;;;;5033584;28;20025;-64
2022/04/12 04:37:18;;;;;;;72.28;41.67;;;4.50;99.90;;;;;;5033429;28;20021;-65
2022/04/12 04:39:44;;;;;;;70.20;42.90;;;4.50;99.90;;;;;;5033350;28;20037;-61
2022/04/12 04:42:09;;;;;;;81.95;49.10;;;4.50;99.90;;;;;;5033462;28;20083;-65
2022/04/12 04:44:35;;;;;;;99.97;56.72;;;4.50;99.90;;;;;;5033517;28;20032;-62
2022/04/12 04:47:01;;;;;;;76.57;45.30;;;4.50;99.90;;;;;;5033591;28;20388;-62
2022/04/12 04:49:27;;;;;;;74.88;46.03;;;4.50;99.90;;;;;;5033383;28;20017;-60
2022/04/12 04:51:53;;;;;;;80.93;46.97;;;4.40;99.90;;;;;;5033168;28;20120;-63
2022/04/12 04:54:18;;;;;;;109.70;59.80;;;4.40;99.90;;;;;;5032930;28;20068;-66
2022/04/12 04:56:44;;;;;;;120.75;64.32;;;4.40;99.90;;;;;;5032358;28;20480;-66
2022/04/12 04:59:13;;;;;;;159.02;89.40;;;4.40;99.90;;;;;;5033087;28;20025;-59
2022/04/12 05:01:39;;;;;;;223.20;110.18;;;4.30;99.90;;;;;;5032960;28;20079;-63
2022/04/12 05:04:05;;;;;;;258.65;126.72;;;4.30;99.90;;;;;;5030300;28;20018;-62
2022/04/12 05:06:31;;;;;;;197.43;98.85;;;4.30;99.90;;;;;;5032324;28;20044;-63
2022/04/12 05:08:57;;;;;;;169.25;88.40;;;4.30;99.90;;;;;;5031476;28;20025;-62
2022/04/12 05:11:23;;;;;;;163.90;83.50;;;4.40;99.90;;;;;;5033916;28;20495;-61
2022/04/12 05:13:48;;;;;;;150.15;80.07;;;4.50;99.90;;;;;;5037111;28;20041;-62
2022/04/12 05:16:14;;;;;;;384.05;208.70;;;4.60;99.90;;;;;;5045732;28;20057;-66
2022/04/12 05:18:40;;;;;;;395.15;199.18;;;4.50;99.90;;;;;;5036419;28;20026;-61
2022/04/12 05:21:06;;;;;;;346.83;163.43;;;4.40;99.90;;;;;;5036069;28;20030;-61
2022/04/12 05:23:31;;;;;;;406.77;190.23;;;4.30;99.90;;;;;;5036179;28;20025;-64
2022/04/12 05:25:57;;;;;;;396.15;175.48;;;4.30;99.90;;;;;;5035145;28;20025;-64
2022/04/12 05:28:23;;;;;;;411.42;183.68;;;4.30;99.90;;;;;;5036378;28;20030;-59
2022/04/12 05:30:49;;;;;;;422.65;188.95;;;4.40;99.90;;;;;;5035723;28;20025;-62
2022/04/12 05:33:15;;;;;;;559.63;288.55;;;4.40;99.90;;;;;;5034843;28;20383;-62
2022/04/12 05:35:41;;;;;;;666.63;349.42;;;4.20;99.90;;;;;;5043452;28;20025;-65
2022/04/12 05:38:07;;;;;;;489.85;233.15;;;4.10;99.90;;;;;;5053187;28;20112;-61
2022/04/12 05:40:34;;;;;;;644.35;339.77;;;4.00;99.90;;;;;;5039756;28;20044;-64
2022/04/12 05:43:00;;;;;;;538.45;275.63;;;4.00;99.90;;;;;;5043309;28;20025;-64
2022/04/12 05:45:26;;;;;;;518.45;237.77;;;4.00;99.90;;;;;;5042047;28;20079;-59
2022/04/12 05:47:53;;;;;;;523.47;228.30;;;4.00;99.90;;;;;;5047900;28;20036;-61
2022/04/12 05:50:24;;;;;;;664.20;309.58;;;4.10;99.90;;;;;;5050873;28;20480;-62
2022/04/12 05:52:50;;;;;;;359.60;154.75;;;4.10;99.90;;;;;;5049189;28;20039;-62
2022/04/12 05:55:18;;;;;;;249.77;107.72;;;4.20;99.90;;;;;;5054689;28;20447;-59
2022/04/12 05:57:59;;;;;;;279.02;115.90;;;4.40;99.90;;;;;;5043560;28;20427;-65
2022/04/12 06:00:27;;;;;;;238.20;107.18;;;4.80;99.90;;;;;;5039407;28;20036;-64
2022/04/12 06:02:54;;;;;;;480.25;218.38;;;5.10;99.90;;;;;;5053824;28;20021;-64
2022/04/12 06:05:22;;;;;;;352.27;155.63;;;5.50;99.90;;;;;;5054908;28;20098;-60
2022/04/12 06:07:48;;;;;;;263.00;120.82;;;5.60;99.90;;;;;;5053489;28;20078;-61
2022/04/12 06:10:18;;;;;;;205.30;93.85;;;5.90;99.90;;;;;;5035976;28;20464;-60
2022/04/12 06:12:44;;;;;;;226.38;103.80;;;8.70;97.50;;;;;;5030571;28;20119;-60
2022/04/12 06:15:10;;;;;;;238.20;105.63;;;12.10;74.70;;;;;;5029836;28;20107;-64
2022/04/12 06:17:37;;;;;;;207.13;97.72;;;14.40;65.20;;;;;;5041576;28;20488;-68
2022/04/12 06:20:09;;;;;;;171.75;85.10;;;16.00;57.20;;;;;;5041315;28;20033;-53
2022/04/12 06:22:35;;;;;;;214.75;98.88;;;17.50;53.50;;;;;;5040544;28;20028;-57
2022/04/12 06:25:02;;;;;;;231.65;111.68;;;18.20;49.60;;;;;;5038739;28;20120;-60
2022/04/12 06:27:41;;;;;;;188.35;96.18;;;18.90;47.60;;;;;;5038679;28;20052;-54
2022/04/12 06:30:13;;;;;;;148.82;78.93;;;19.60;45.90;;;;;;5036626;28;20103;-58
2022/04/12 06:32:39;;;;;;;131.60;69.93;;;20.80;44.00;;;;;;5035811;28;20383;-58
2022/04/12 06:35:07;;;;;;;104.55;56.47;;;21.50;42.20;;;;;;5038312;28;20428;-55
2022/04/12 06:37:33;;;;;;;91.90;50.17;;;22.40;40.60;;;;;;5040941;28;20070;-56
2022/04/12 06:39:59;;;;;;;79.15;47.65;;;23.10;39.90;;;;;;5039509;28;20026;-57
2022/04/12 06:42:26;;;;;;;64.32;39.20;;;23.80;39.00;;;;;;5040309;28;20025;-60
2022/04/12 06:44:52;;;;;;;44.55;29.27;;;24.60;38.10;;;;;;5041604;28;20422;-58
2022/04/12 06:47:18;;;;;;;33.63;22.52;;;24.90;36.50;;;;;;5040274;28;20412;-56
2022/04/12 06:49:49;;;;;;;25.73;17.13;;;25.50;36.40;;;;;;5036306;28;20030;-55
2022/04/12 06:52:16;;;;;;;22.52;15.88;;;26.10;36.90;;;;;;5034275;28;20029;-61
2022/04/12 06:54:42;;;;;;;20.35;13.70;;;26.20;35.10;;;;;;5034556;28;20021;-54
2022/04/12 06:57:08;;;;;;;17.98;12.25;;;26.50;35.00;;;;;;5033436;28;20025;-65
2022/04/12 06:59:35;;;;;;;13.77;9.85;;;26.90;33.40;;;;;;5044741;28;20059;-64
2022/04/12 07:02:01;;;;;;;12.45;8.85;;;27.30;31.60;;;;;;5033866;28;20115;-70
2022/04/12 07:04:28;;;;;;;10.70;7.53;;;27.90;32.20;;;;;;5038770;28;20130;-67
2022/04/12 07:06:54;;;;;;;9.13;7.03;;;28.30;33.20;;;;;;5039113;28;20104;-68
2022/04/12 07:09:23;;;;;;;9.48;6.97;;;29.00;32.40;;;;;;5037402;28;20480;-70
2022/04/12 07:11:49;;;;;;;7.80;5.50;;;29.30;31.20;;;;;;5036837;28;20040;-69
2022/04/12 07:14:15;;;;;;;7.05;5.10;;;29.50;30.30;;;;;;5040101;28;20369;-67
2022/04/12 07:16:41;;;;;;;6.50;5.10;;;30.00;30.40;;;;;;5030429;28;20068;-69
2022/04/12 07:19:07;;;;;;;5.32;4.55;;;30.00;29.30;;;;;;5043386;28;20036;-67
2022/04/12 07:21:33;;;;;;;4.95;4.10;;;30.10;28.80;;;;;;5045164;28;20057;-66
2022/04/12 07:23:59;;;;;;;5.25;3.63;;;30.60;29.20;;;;;;5052323;28;20044;-67
2022/04/12 07:26:29;;;;;;;5.38;3.80;;;30.90;29.30;;;;;;5049929;28;20065;-69
2022/04/12 07:28:55;;;;;;;4.50;3.50;;;31.10;29.40;;;;;;5035988;28;20029;-66
2022/04/12 07:31:21;;;;;;;4.97;4.00;;;31.30;28.50;;;;;;5044399;28;20048;-69
2022/04/12 07:33:46;;;;;;;5.03;4.20;;;31.30;28.20;;;;;;5050146;28;20028;-67
2022/04/12 07:36:12;;;;;;;5.05;4.10;;;31.50;29.10;;;;;;5051844;28;20086;-66
2022/04/12 07:38:38;;;;;;;5.80;4.65;;;31.80;28.20;;;;;;5043497;28;20491;-67
2022/04/12 07:41:04;;;;;;;6.63;4.97;;;31.90;29.00;;;;;;5035804;28;20566;-69
2022/04/12 07:43:30;;;;;;;6.57;4.68;;;31.70;29.30;;;;;;5038331;28;20029;-66
2022/04/12 07:45:56;;;;;;;6.43;5.20;;;31.90;28.70;;;;;;5050326;28;20028;-64
2022/04/12 07:48:22;;;;;;;6.35;5.45;;;31.30;28.70;;;;;;5041941;28;20045;-69
2022/04/12 07:50:48;;;;;;;8.10;5.95;;;31.50;28.80;;;;;;5034066;28;20018;-66
2022/04/12 07:53:14;;;;;;;6.85;5.07;;;31.40;28.40;;;;;;5031950;28;20033;-66
2022/04/12 07:55:40;;;;;;;9.23;5.28;;;31.40;28.50;;;;;;5035335;28;20083;-66
2022/04/12 07:58:05;;;;;;;6.95;5.78;;;32.00;29.30;;;;;;5039646;28;20025;-71
2022/04/12 08:00:31;;;;;;;7.32;5.70;;;32.20;27.40;;;;;;5041493;28;20040;-67
2022/04/12 08:02:57;;;;;;;7.25;5.28;;;32.30;27.60;;;;;;5029831;28;20025;-67
2022/04/12 08:05:23;;;;;;;7.32;4.75;;;33.00;29.40;;;;;;5042960;28;20033;-66
2022/04/12 08:07:49;;;;;;;6.50;4.88;;;33.00;28.00;;;;;;5039982;28;20028;-68
2022/04/12 08:10:19;;;;;;;5.65;4.78;;;32.40;26.70;;;;;;5041138;28;20021;-66
2022/04/12 08:12:46;;;;;;;7.40;5.40;;;32.60;27.90;;;;;;5047226;28;20017;-67
2022/04/12 08:15:13;;;;;;;7.65;5.60;;;32.80;27.50;;;;;;5030037;28;20530;-68
2022/04/12 08:17:39;;;;;;;7.22;6.15;;;32.80;27.40;;;;;;5035543;28;20117;-66
2022/04/12 08:20:06;;;;;;;8.10;6.47;;;32.40;27.40;;;;;;5036835;28;20492;-69
2022/04/12 08:22:34;;;;;;;8.18;6.90;;;32.50;26.50;;;;;;5039400;28;20504;-68
2022/04/12 08:25:00;;;;;;;7.60;6.43;;;32.60;26.70;;;;;;5031373;28;20025;-67
2022/04/12 08:27:26;;;;;;;10.65;8.32;;;33.00;27.40;;;;;;5035639;28;20463;-70
2022/04/12 08:29:52;;;;;;;8.15;7.35;;;32.40;28.50;;;;;;5035150;28;20021;-65
2022/04/12 08:32:18;;;;;;;8.75;6.45;;;31.80;27.40;;;;;;5034310;28;20079;-69
2022/04/12 08:34:45;;;;;;;8.27;6.15;;;31.60;28.00;;;;;;5043222;28;20548;-72
2022/04/12 08:37:11;;;;;;;7.93;5.68;;;31.70;26.90;;;;;;5030676;28;20052;-67
2022/04/12 08:39:38;;;;;;;6.25;5.00;;;31.10;27.70;;;;;;5033103;28;20091;-68
2022/04/12 08:42:05;;;;;;;7.90;5.68;;;30.60;28.20;;;;;;5029512;28;20075;-67
2022/04/12 08:44:33;;;;;;;7.78;6.00;;;30.20;29.50;;;;;;5031454;28;20510;-67
2022/04/12 08:47:03;;;;;;;6.75;5.40;;;29.90;28.70;;;;;;5044037;28;20029;-68
2022/04/12 08:49:29;;;;;;;6.50;5.00;;;29.40;27.80;;;;;;5044410;28;20357;-68
2022/04/12 08:51:55;;;;;;;6.50;4.75;;;29.50;27.80;;;;;;5045097;28;20026;-67
2022/04/12 08:54:22;;;;;;;5.60;4.50;;;29.40;29.60;;;;;;5030867;28;20373;-69
2022/04/12 08:56:52;;;;;;;4.80;3.67;;;29.20;27.30;;;;;;5030407;28;20026;-71
2022/04/12 08:59:18;;;;;;;6.88;4.35;;;29.10;28.10;;;;;;5029942;28;20033;-67
2022/04/12 09:01:46;;;;;;;6.03;4.20;;;29.30;28.10;;;;;;5033540;28;20160;-67
2022/04/12 09:04:12;;;;;;;5.22;4.10;;;29.10;28.80;;;;;;5041284;28;20458;-65
2022/04/12 09:06:52;;;;;;;6.78;3.25;;;28.40;28.80;;;;;;5051003;28;20044;-65
2022/04/12 09:09:20;;;;;;;4.28;2.60;;;28.10;30.00;;;;;;5049281;28;20029;-66
2022/04/12 09:12:02;;;;;;;3.60;2.20;;;27.10;28.90;;;;;;5040502;28;20393;-69
2022/04/12 09:14:52;;;;;;;2.08;1.40;;;26.70;27.60;;;;;;5031926;28;20053;-56
2022/04/12 09:17:30;;;;;;;2.45;1.65;;;27.10;26.80;;;;;;5035332;28;20038;-64
2022/04/12 09:19:56;;;;;;;3.30;1.55;;;26.50;27.10;;;;;;5049326;28;20138;-62
2022/04/12 09:22:24;;;;;;;2.35;1.55;;;26.60;28.80;;;;;;5043127;28;20484;-63
2022/04/12 09:24:54;;;;;;;3.28;2.20;;;26.50;30.00;;;;;;5039257;28;20036;-55
2022/04/12 09:27:25;;;;;;;2.58;1.98;;;26.20;28.00;;;;;;5050134;28;20136;-64
2022/04/12 09:30:01;;;;;;;3.40;2.47;;;26.00;29.50;;;;;;5039864;28;20029;-65
2022/04/12 09:32:29;;;;;;;3.55;1.75;;;26.40;27.80;;;;;;5040053;28;20036;-65
2022/04/12 09:34:56;;;;;;;2.92;2.30;;;26.50;27.50;;;;;;5032909;28;20033;-63
2022/04/12 09:37:30;;;;;;;2.60;2.17;;;26.70;27.60;;;;;;5030967;28;20383;-65
2022/04/12 09:39:59;;;;;;;2.88;1.83;;;27.20;29.30;;;;;;5040310;28;20379;-60
2022/04/12 09:42:57;;;;;;;3.50;2.80;;;27.00;28.70;;;;;;5028859;28;20026;-54
2022/04/12 09:45:28;;;;;;;3.70;2.55;;;26.90;27.50;;;;;;5036402;28;20056;-57
2022/04/12 09:48:04;;;;;;;3.65;3.10;;;27.40;26.70;;;;;;5033543;28;20033;-67
2022/04/12 09:50:32;;;;;;;3.20;2.58;;;27.40;28.40;;;;;;5028618;28;20259;-56
2022/04/12 09:52:59;;;;;;;9.63;7.22;;;26.80;28.30;;;;;;5039550;28;20048;-61
2022/04/12 09:55:40;;;;;;;4.50;3.90;;;26.40;26.90;;;;;;5039131;28;20029;-64
2022/04/12 09:58:08;;;;;;;2.97;2.40;;;26.20;27.80;;;;;;5041324;28;20021;-63
2022/04/12 10:00:35;;;;;;;2.80;2.10;;;26.30;29.10;;;;;;5036249;28;20526;-60
2022/04/12 10:03:06;;;;;;;2.20;1.75;;;26.20;29.60;;;;;;5032876;28;20656;-57
2022/04/12 10:05:32;;;;;;;2.28;1.48;;;26.30;27.00;;;;;;5035497;28;20076;-63
2022/04/12 10:08:00;;;;;;;2.53;2.33;;;26.60;29.90;;;;;;5040717;28;20071;-65
2022/04/12 10:10:27;;;;;;;2.28;2.00;;;26.30;28.70;;;;;;5047800;28;20036;-60
2022/04/12 10:12:54;;;;;;;4.18;2.70;;;26.40;27.00;;;;;;5049800;28;20032;-62
2022/04/12 10:15:21;;;;;;;4.30;3.00;;;26.60;27.40;;;;;;5052809;28;20069;-60
2022/04/12 10:17:48;;;;;;;2.97;2.20;;;26.50;28.20;;;;;;5038951;28;20029;-61
2022/04/12 10:20:16;;;;;;;2.75;2.45;;;26.30;27.40;;;;;;5049948;28;20175;-62
2022/04/12 10:22:42;;;;;;;2.58;2.38;;;26.40;31.70;;;;;;5049272;28;20124;-61
2022/04/12 10:25:10;;;;;;;2.33;2.13;;;26.90;28.40;;;;;;5034542;28;20022;-61
2022/04/12 10:27:36;;;;;;;9.25;3.65;;;27.20;28.30;;;;;;5034921;28;20332;-63
2022/04/12 10:30:17;;;;;;;4.50;2.78;;;26.90;26.90;;;;;;5032738;28;20025;-54
2022/04/12 10:33:02;;;;;;;4.18;3.25;;;26.20;29.20;;;;;;5032075;28;20028;-64
2022/04/12 10:35:56;;;;;;;4.63;3.13;;;26.00;28.30;;;;;;5031587;28;20021;-53
2022/04/12 10:38:24;;;;;;;3.88;2.67;;;25.90;31.90;;;;;;5032327;28;20026;-60
2022/04/12 10:40:53;;;;;;;6.60;3.15;;;25.70;30.40;;;;;;5033733;28;20026;-63
2022/04/12 10:43:23;;;;;;;3.35;2.92;;;25.90;29.10;;;;;;5041806;28;20119;-56
2022/04/12 10:45:51;;;;;;;6.22;2.95;;;26.20;29.10;;;;;;5038473;28;20032;-63
2022/04/12 10:48:21;;;;;;;4.45;2.97;;;26.70;28.40;;;;;;5038599;28;20045;-61
2022/04/12 10:50:48;;;;;;;4.22;2.40;;;27.00;27.40;;;;;;5036955;28;20021;-61
2022/04/12 10:53:14;;;;;;;3.63;2.88;;;27.00;28.10;;;;;;5033399;28;20025;-63
2022/04/12 10:55:43;;;;;;;3.60;2.78;;;26.90;28.80;;;;;;5031958;28;20095;-61
2022/04/12 10:58:29;;;;;;;2.63;2.22;;;26.90;30.80;;;;;;5051101;28;20025;-61
2022/04/12 11:00:55;;;;;;;3.03;2.33;;;26.70;32.30;;;;;;5054578;28;20025;-64
2022/04/12 11:03:53;;;;;;;2.78;2.20;;;27.00;29.40;;;;;;5053648;28;20036;-57
2022/04/12 11:06:27;;;;;;;4.20;2.60;;;27.30;31.40;;;;;;5053143;28;20036;-60
2022/04/12 11:09:06;;;;;;;3.10;2.30;;;27.30;30.90;;;;;;5042934;28;20045;-61
2022/04/12 11:11:41;;;;;;;2.60;2.30;;;27.40;29.80;;;;;;5037424;28;20037;-61
2022/04/12 11:14:28;;;;;;;5.10;2.90;;;27.60;29.80;;;;;;5039283;28;20025;-63
2022/04/12 11:17:03;;;;;;;2.97;2.25;;;27.50;31.60;;;;;;5039641;28;20530;-58
2022/04/12 11:19:39;;;;;;;3.92;3.20;;;27.50;31.50;;;;;;5035748;28;20026;-53
2022/04/12 11:22:11;;;;;;;2.35;2.15;;;27.10;28.90;;;;;;5029741;28;20025;-55
2022/04/12 11:24:37;;;;;;;3.17;2.63;;;27.10;32.60;;;;;;5031929;28;20029;-55
2022/04/12 11:27:11;;;;;;;3.05;2.75;;;27.50;28.70;;;;;;5031693;28;20037;-53
2022/04/12 11:29:43;;;;;;;3.83;2.60;;;27.10;30.60;;;;;;5033080;28;20079;-55
2022/04/12 11:32:10;;;;;;;3.78;2.55;;;27.10;30.00;;;;;;5030906;28;20033;-55
2022/04/12 11:34:39;;;;;;;3.53;2.92;;;27.40;33.00;;;;;;5026689;28;20072;-54
2022/04/12 11:37:13;;;;;;;2.97;2.30;;;27.40;28.40;;;;;;5028124;28;20141;-56
2022/04/12 11:39:44;;;;;;;3.90;2.95;;;27.30;30.00;;;;;;5029838;28;20033;-52
2022/04/12 11:42:14;;;;;;;4.03;2.45;;;27.50;28.90;;;;;;5029396;28;20056;-66
2022/04/12 11:44:53;;;;;;;3.20;2.40;;;27.30;34.90;;;;;;5032469;28;20030;-59
2022/04/12 11:47:19;;;;;;;5.18;4.40;;;27.70;30.00;;;;;;5033633;28;20109;-59
2022/04/12 11:49:45;;;;;;;4.05;3.58;;;27.80;27.40;;;;;;5051207;28;20021;-58
2022/04/12 11:52:14;;;;;;;4.22;3.60;;;27.80;27.70;;;;;;5050815;28;20021;-63
2022/04/12 11:54:40;;;;;;;5.57;4.38;;;27.60;28.00;;;;;;5040224;28;20422;-62
2022/04/12 11:57:20;;;;;;;5.25;4.10;;;27.50;27.90;;;;;;5047386;28;20021;-64
2022/04/12 11:59:49;;;;;;;4.93;4.25;;;27.30;27.90;;;;;;5049281;28;20033;-59
2022/04/12 12:02:16;;;;;;;4.32;3.90;;;27.10;28.60;;;;;;5047339;28;20029;-64
2022/04/12 12:04:54;;;;;;;4.30;3.28;;;27.30;28.00;;;;;;5041432;28;20033;-62
2022/04/12 12:07:20;;;;;;;4.47;3.85;;;27.60;29.20;;;;;;5041039;28;20029;-62
2022/04/12 12:10:11;;;;;;;4.20;3.80;;;27.50;26.90;;;;;;5035560;28;20025;-60
2022/04/12 12:12:39;;;;;;;4.65;4.13;;;27.50;27.20;;;;;;5043427;28;20021;-65
2022/04/12 12:15:14;;;;;;;3.97;3.60;;;27.70;28.30;;;;;;5053614;28;20081;-62
2022/04/12 12:17:40;;;;;;;5.15;3.85;;;27.40;27.90;;;;;;5044559;28;20037;-61
2022/04/12 12:20:07;;;;;;;4.40;4.00;;;27.60;29.50;;;;;;5035643;28;20030;-60
2022/04/12 12:22:41;;;;;;;4.60;4.20;;;28.00;27.50;;;;;;5032996;28;20041;-62
2022/04/12 12:25:08;;;;;;;3.88;3.47;;;28.30;28.60;;;;;;5044108;28;20028;-62
2022/04/12 12:27:38;;;;;;;4.35;3.92;;;28.00;28.70;;;;;;5053457;28;20025;-63
2022/04/12 12:30:06;;;;;;;3.88;3.58;;;28.10;27.20;;;;;;5052320;28;20104;-61
2022/04/12 12:32:33;;;;;;;3.50;3.17;;;28.20;27.30;;;;;;5052840;28;20097;-64
2022/04/12 12:35:07;;;;;;;4.38;3.97;;;28.40;28.20;;;;;;5053288;28;20024;-62
2022/04/12 12:37:33;;;;;;;5.70;4.38;;;28.30;27.30;;;;;;5052846;28;20025;-60
2022/04/12 12:40:00;;;;;;;4.22;3.83;;;27.90;27.40;;;;;;5050670;28;20037;-60
2022/04/12 12:42:37;;;;;;;4.72;4.15;;;27.50;27.40;;;;;;5033438;28;20025;-61
2022/04/12 12:45:28;;;;;;;5.03;4.05;;;27.40;27.30;;;;;;5033325;28;20104;-59